createdAt,value
2022-09-18T00:00:10.300Z,11.41
2022-09-18T00:02:40.863Z,11.36
2022-09-18T00:05:11.501Z,11.29
2022-09-18T00:07:41.982Z,11.22
2022-09-18T00:10:12.276Z,11.18
2022-09-18T00:12:42.680Z,11.12
2022-09-18T00:15:13.183Z,11.20
2022-09-18T00:17:43.681Z,11.14
2022-09-18T00:20:14.126Z,11.13
2022-09-18T00:22:44.579Z,11.04
2022-09-18T00:25:15.134Z,11.02
2022-09-18T00:27:45.627Z,11.06
2022-09-18T00:30:16.247Z,10.96
2022-09-18T00:32:46.727Z,10.96
2022-09-18T00:35:17.240Z,10.98
2022-09-18T00:37:47.543Z,11.00
2022-09-18T00:40:18.212Z,10.98
2022-09-18T00:42:48.637Z,10.91
2022-09-18T00:45:19.106Z,10.88
2022-09-18T00:47:51.983Z,10.92
2022-09-18T00:50:25.331Z,10.93
2022-09-18T00:53:03.241Z,10.81
2022-09-18T00:55:38.774Z,10.88
2022-09-18T00:58:10.157Z,10.77
2022-09-18T01:00:40.521Z,10.76
2022-09-18T01:03:12.583Z,10.72
2022-09-18T01:06:11.733Z,10.86
2022-09-18T01:08:56.881Z,10.84
2022-09-18T01:11:39.353Z,10.94
2022-09-18T01:14:30.712Z,10.89
2022-09-18T01:17:16.038Z,10.87
2022-09-18T01:20:23.942Z,10.78
2022-09-18T01:23:26.241Z,10.73
2022-09-18T01:26:02.737Z,10.72
2022-09-18T01:28:42.121Z,10.65
2022-09-18T01:31:21.546Z,10.68
2022-09-18T01:34:04.563Z,10.76
2022-09-18T01:36:38.826Z,10.68
2022-09-18T01:39:21.338Z,10.72
2022-09-18T01:41:55.981Z,10.78
2022-09-18T01:44:29.605Z,10.79
2022-09-18T01:47:02.257Z,10.78
2022-09-18T01:49:35.699Z,10.76
2022-09-18T01:52:12.290Z,10.78
2022-09-18T01:54:45.894Z,10.78
2022-09-18T01:57:22.305Z,10.83
2022-09-18T02:00:10.896Z,10.92
2022-09-18T02:03:02.308Z,10.82
2022-09-18T02:05:38.807Z,10.84
2022-09-18T02:08:17.960Z,10.80
2022-09-18T02:10:51.431Z,11.14
2022-09-18T02:13:24.840Z,10.76
2022-09-18T02:15:58.324Z,10.64
2022-09-18T02:18:31.756Z,10.68
2022-09-18T02:21:02.539Z,10.64
2022-09-18T02:23:34.501Z,10.71
2022-09-18T02:26:07.168Z,10.60
2022-09-18T02:28:39.813Z,10.57
2022-09-18T02:31:13.087Z,10.48
2022-09-18T02:33:44.757Z,10.56
2022-09-18T02:36:43.307Z,10.58
2022-09-18T02:39:37.459Z,10.51
2022-09-18T02:42:22.952Z,10.48
2022-09-18T02:45:04.773Z,10.45
2022-09-18T02:48:02.664Z,10.50
2022-09-18T02:50:45.137Z,10.60
2022-09-18T02:53:36.808Z,10.58
2022-09-18T02:56:21.157Z,10.50
2022-09-18T02:59:00.597Z,10.55
2022-09-18T03:01:33.175Z,10.41
2022-09-18T03:04:06.128Z,10.44
2022-09-18T03:06:36.450Z,10.44
2022-09-18T03:09:06.852Z,10.42
2022-09-18T03:11:37.448Z,10.42
2022-09-18T03:14:07.744Z,10.36
2022-09-18T03:16:38.173Z,10.34
2022-09-18T03:19:08.648Z,10.33
2022-09-18T03:21:39.085Z,10.44
2022-09-18T03:24:09.318Z,10.34
2022-09-18T03:26:39.841Z,10.33
2022-09-18T03:29:11.065Z,10.34
2022-09-18T03:31:41.914Z,10.34
2022-09-18T03:34:12.362Z,10.36
2022-09-18T03:36:42.749Z,10.32
2022-09-18T03:39:14.271Z,10.22
2022-09-18T03:41:45.084Z,10.18
2022-09-18T03:44:15.547Z,10.22
2022-09-18T03:46:46.130Z,10.26
2022-09-18T03:49:16.609Z,10.26
2022-09-18T03:51:47.010Z,10.20
2022-09-18T03:54:17.462Z,10.18
2022-09-18T03:56:49.005Z,10.34
2022-09-18T03:59:19.402Z,10.21
2022-09-18T04:01:49.904Z,10.15
2022-09-18T04:04:20.325Z,10.16
2022-09-18T04:06:51.128Z,10.18
2022-09-18T04:09:21.526Z,10.19
2022-09-18T04:11:51.944Z,10.20
2022-09-18T04:14:25.625Z,10.28
2022-09-18T04:16:54.885Z,10.22
2022-09-18T04:19:25.252Z,10.25
2022-09-18T04:21:55.573Z,10.24
2022-09-18T04:24:25.976Z,10.28
2022-09-18T04:26:56.358Z,10.16
2022-09-18T04:29:26.808Z,10.26
2022-09-18T04:31:57.134Z,10.24
2022-09-18T04:34:27.534Z,10.09
2022-09-18T04:36:57.896Z,10.21
2022-09-18T04:39:28.456Z,10.11
2022-09-18T04:41:59.528Z,10.15
2022-09-18T04:44:29.901Z,10.18
2022-09-18T04:47:00.539Z,10.16
2022-09-18T04:49:30.982Z,10.09
2022-09-18T04:52:01.397Z,10.08
2022-09-18T04:54:31.870Z,10.06
2022-09-18T04:57:02.225Z,10.07
2022-09-18T04:59:32.896Z,10.06
2022-09-18T05:02:03.362Z,9.98
2022-09-18T05:04:33.787Z,10.15
2022-09-18T05:07:05.154Z,10.10
2022-09-18T05:09:36.153Z,10.08
2022-09-18T05:12:06.860Z,10.29
2022-09-18T05:14:37.312Z,10.17
2022-09-18T05:17:07.743Z,10.04
2022-09-18T05:19:38.244Z,10.09
2022-09-18T05:22:08.735Z,10.18
2022-09-18T05:24:39.087Z,10.22
2022-09-18T05:27:10.234Z,10.08
2022-09-18T05:29:40.959Z,10.10
2022-09-18T05:32:11.376Z,10.22
2022-09-18T05:34:42.934Z,10.06
2022-09-18T05:37:13.451Z,10.06
2022-09-18T05:39:43.912Z,9.94
2022-09-18T05:42:14.301Z,9.99
2022-09-18T05:44:44.693Z,10.09
2022-09-18T05:47:15.193Z,10.04
2022-09-18T05:49:45.608Z,9.96
2022-09-18T05:52:15.992Z,9.95
2022-09-18T05:54:46.287Z,9.78
2022-09-18T05:57:16.788Z,9.75
2022-09-18T05:59:47.127Z,9.73
2022-09-18T06:02:17.636Z,9.75
2022-09-18T06:04:48.193Z,9.72
2022-09-18T06:07:18.518Z,9.89
2022-09-18T06:09:49.427Z,9.74
2022-09-18T06:12:19.964Z,9.84
2022-09-18T06:14:50.324Z,9.74
2022-09-18T06:17:20.894Z,9.70
2022-09-18T06:19:51.223Z,9.80
2022-09-18T06:22:21.724Z,9.76
2022-09-18T06:24:52.337Z,9.76
2022-09-18T06:27:22.833Z,9.75
2022-09-18T06:29:54.137Z,9.94
2022-09-18T06:32:24.431Z,9.73
2022-09-18T06:34:54.897Z,9.86
2022-09-18T06:37:25.224Z,10.14
2022-09-18T06:39:55.614Z,10.00
2022-09-18T06:42:26.018Z,10.07
2022-09-18T06:44:57.160Z,10.13
2022-09-18T06:47:27.515Z,10.15
2022-09-18T06:49:57.813Z,10.02
2022-09-18T06:52:28.446Z,10.20
2022-09-18T06:54:58.758Z,10.08
2022-09-18T06:57:29.175Z,10.21
2022-09-18T06:59:59.641Z,10.17
2022-09-18T07:02:30.032Z,10.20
2022-09-18T07:05:00.734Z,10.31
2022-09-18T07:07:31.171Z,10.38
2022-09-18T07:10:03.647Z,10.22
2022-09-18T07:12:33.410Z,10.42
2022-09-18T07:15:03.933Z,10.30
2022-09-18T07:17:34.727Z,10.28
2022-09-18T07:20:05.633Z,10.36
2022-09-18T07:22:35.957Z,10.50
2022-09-18T07:25:07.631Z,10.54
2022-09-18T07:27:37.971Z,10.64
2022-09-18T07:30:09.104Z,10.74
2022-09-18T07:32:39.446Z,10.68
2022-09-18T07:35:10.777Z,10.70
2022-09-18T07:37:41.098Z,10.83
2022-09-18T07:40:12.722Z,10.95
2022-09-18T07:42:43.312Z,10.97
2022-09-18T07:45:13.808Z,10.93
2022-09-18T07:47:44.130Z,10.92
2022-09-18T07:50:16.028Z,10.96
2022-09-18T07:52:58.978Z,10.90
2022-09-18T07:55:29.752Z,10.98
2022-09-18T07:58:02.194Z,11.03
2022-09-18T08:00:38.031Z,11.10
2022-09-18T08:03:13.799Z,11.22
2022-09-18T08:05:44.325Z,11.33
2022-09-18T08:08:16.355Z,11.53
2022-09-18T08:10:46.973Z,11.75
2022-09-18T08:13:17.374Z,11.82
2022-09-18T08:15:47.777Z,11.84
2022-09-18T08:18:18.179Z,11.86
2022-09-18T08:20:48.609Z,11.63
2022-09-18T08:23:18.976Z,11.56
2022-09-18T08:25:49.361Z,11.79
2022-09-18T08:28:19.734Z,11.90
2022-09-18T08:30:50.133Z,11.88
2022-09-18T08:33:20.980Z,12.00
2022-09-18T08:35:51.552Z,12.00
2022-09-18T08:38:22.006Z,12.32
2022-09-18T08:41:10.413Z,12.10
2022-09-18T08:43:55.845Z,12.16
2022-09-18T08:46:47.610Z,12.18
2022-09-18T08:49:36.907Z,12.16
2022-09-18T08:52:16.100Z,12.18
2022-09-18T08:54:58.247Z,12.38
2022-09-18T08:57:43.785Z,12.45
2022-09-18T09:00:17.287Z,12.58
2022-09-18T09:02:50.677Z,12.80
2022-09-18T09:05:24.408Z,12.66
2022-09-18T09:08:14.311Z,12.51
2022-09-18T09:11:02.822Z,12.34
2022-09-18T09:14:10.549Z,12.31
2022-09-18T09:16:52.250Z,12.34
2022-09-18T09:19:25.655Z,12.40
2022-09-18T09:22:08.318Z,12.82
2022-09-18T09:25:00.975Z,12.84
2022-09-18T09:27:34.454Z,12.82
2022-09-18T09:30:17.057Z,12.92
2022-09-18T09:33:15.066Z,12.86
2022-09-18T09:35:51.370Z,12.94
2022-09-18T09:38:27.474Z,13.18
2022-09-18T09:41:00.437Z,13.21
2022-09-18T09:43:56.454Z,13.30
2022-09-18T09:46:54.022Z,13.33
2022-09-18T09:49:30.906Z,13.20
2022-09-18T09:52:25.120Z,13.20
2022-09-18T09:55:04.770Z,13.00
2022-09-18T09:57:41.171Z,11.70
2022-09-18T10:00:19.738Z,11.10
2022-09-18T10:03:02.180Z,10.92
2022-09-18T10:05:45.013Z,10.79
2022-09-18T10:08:21.193Z,11.12
2022-09-18T10:10:59.780Z,11.35
2022-09-18T10:13:38.888Z,11.46
2022-09-18T10:16:17.992Z,11.58
2022-09-18T10:18:49.662Z,11.62
2022-09-18T10:21:22.922Z,11.80
2022-09-18T10:23:59.123Z,11.93
2022-09-18T10:26:50.679Z,11.85
2022-09-18T10:29:21.694Z,11.62
2022-09-18T10:31:57.725Z,11.58
2022-09-18T10:34:41.170Z,11.66
2022-09-18T10:37:29.638Z,11.96
2022-09-18T10:40:01.901Z,12.32
2022-09-18T10:42:35.109Z,12.44
2022-09-18T10:45:08.387Z,12.40
2022-09-18T10:47:39.159Z,12.38
2022-09-18T10:50:15.373Z,12.33
2022-09-18T10:52:47.189Z,12.26
2022-09-18T10:55:20.785Z,12.26
2022-09-18T10:57:57.064Z,12.31
2022-09-18T11:00:32.465Z,12.76
2022-09-18T11:03:15.098Z,13.22
2022-09-18T11:05:51.856Z,13.61
2022-09-18T11:08:25.284Z,13.84
2022-09-18T11:11:01.630Z,14.11
2022-09-18T11:13:33.091Z,13.74
2022-09-18T11:16:05.245Z,13.64
2022-09-18T11:18:37.276Z,13.62
2022-09-18T11:21:08.720Z,13.24
2022-09-18T11:23:40.298Z,12.53
2022-09-18T11:26:22.197Z,12.29
2022-09-18T11:29:20.180Z,11.98
2022-09-18T11:31:59.301Z,12.05
2022-09-18T11:34:35.879Z,12.36
2022-09-18T11:37:12.082Z,13.36
2022-09-18T11:39:45.602Z,16.92
2022-09-18T11:42:18.383Z,19.46
2022-09-18T11:44:48.871Z,21.90
2022-09-18T11:47:25.673Z,23.24
2022-09-18T11:50:13.827Z,25.48
2022-09-18T11:52:47.399Z,25.38
2022-09-18T11:55:39.015Z,24.86
2022-09-18T11:58:18.083Z,25.70
2022-09-18T12:01:12.746Z,24.92
2022-09-18T12:03:47.368Z,24.68
2022-09-18T12:06:41.852Z,21.55
2022-09-18T12:09:30.707Z,19.98
2022-09-18T12:12:13.297Z,17.75
2022-09-18T12:14:52.232Z,15.72
2022-09-18T12:17:40.583Z,15.02
2022-09-18T12:20:16.843Z,13.99
2022-09-18T12:22:56.408Z,13.71
2022-09-18T12:25:50.423Z,13.42
2022-09-18T12:28:28.216Z,13.67
2022-09-18T12:31:13.338Z,14.08
2022-09-18T12:33:58.601Z,14.70
2022-09-18T12:36:48.267Z,15.32
2022-09-18T12:39:33.895Z,15.06
2022-09-18T12:42:25.706Z,15.06
2022-09-18T12:45:17.508Z,15.82
2022-09-18T12:48:07.565Z,15.60
2022-09-18T12:51:00.867Z,15.34
2022-09-18T12:53:46.405Z,15.41
2022-09-18T12:56:25.540Z,14.97
2022-09-18T12:59:05.083Z,14.83
2022-09-18T13:01:45.126Z,14.51
2022-09-18T13:04:21.198Z,14.29
2022-09-18T13:07:00.342Z,14.32
2022-09-18T13:09:33.759Z,14.22
2022-09-18T13:12:07.852Z,14.00
2022-09-18T13:14:43.663Z,13.97
2022-09-18T13:17:20.304Z,13.74
2022-09-18T13:19:59.941Z,13.61
2022-09-18T13:22:33.338Z,13.62
2022-09-18T13:25:05.960Z,13.92
2022-09-18T13:27:37.253Z,13.90
2022-09-18T13:30:25.639Z,14.02
2022-09-18T13:32:57.755Z,14.36
2022-09-18T13:35:34.420Z,14.40
2022-09-18T13:38:11.178Z,14.09
2022-09-18T13:40:47.797Z,13.84
2022-09-18T13:43:30.549Z,13.91
2022-09-18T13:46:06.859Z,13.58
2022-09-18T13:48:44.363Z,13.24
2022-09-18T13:51:23.750Z,13.37
2022-09-18T13:54:24.076Z,13.38
2022-09-18T13:57:14.189Z,13.22
2022-09-18T13:59:53.392Z,13.26
2022-09-18T14:02:41.606Z,13.10
2022-09-18T14:05:39.749Z,13.08
2022-09-18T14:08:25.958Z,13.02
2022-09-18T14:11:16.455Z,12.94
2022-09-18T14:13:56.170Z,13.12
2022-09-18T14:16:32.973Z,13.14
2022-09-18T14:19:23.029Z,13.02
2022-09-18T14:21:54.146Z,13.20
2022-09-18T14:24:39.254Z,13.24
2022-09-18T14:27:32.294Z,13.04
2022-09-18T14:30:18.041Z,12.96
2022-09-18T14:32:57.238Z,12.96
2022-09-18T14:35:39.668Z,12.78
2022-09-18T14:38:28.044Z,12.70
2022-09-18T14:41:12.070Z,12.65
2022-09-18T14:43:45.535Z,12.61
2022-09-18T14:46:20.974Z,12.62
2022-09-18T14:48:52.181Z,12.67
2022-09-18T14:51:40.639Z,12.79
2022-09-18T14:54:03.607Z,12.59
2022-09-18T14:56:36.984Z,12.56
2022-09-18T14:59:10.389Z,12.48
2022-09-18T15:01:41.322Z,12.50
2022-09-18T15:04:18.191Z,12.54
2022-09-18T15:06:51.318Z,12.87
2022-09-18T15:09:30.478Z,12.94
2022-09-18T15:12:03.131Z,13.18
2022-09-18T15:14:45.367Z,13.18
2022-09-18T15:17:22.600Z,13.15
2022-09-18T15:20:01.964Z,13.02
2022-09-18T15:22:32.391Z,12.94
2022-09-18T15:25:03.220Z,12.82
2022-09-18T15:27:34.195Z,12.70
2022-09-18T15:30:10.263Z,12.61
2022-09-18T15:32:43.728Z,12.60
2022-09-18T15:35:20.063Z,12.59
2022-09-18T15:37:53.892Z,12.55
2022-09-18T15:40:30.416Z,12.42
2022-09-18T15:43:03.574Z,12.50
2022-09-18T15:45:35.949Z,12.54
2022-09-18T15:48:15.218Z,12.50
2022-09-18T15:50:45.681Z,12.37
2022-09-18T15:53:19.359Z,12.34
2022-09-18T15:56:02.253Z,12.25
2022-09-18T15:58:47.652Z,12.14
2022-09-18T16:01:21.112Z,12.22
2022-09-18T16:04:08.411Z,12.19
2022-09-18T16:06:39.683Z,12.12
2022-09-18T16:09:13.100Z,12.20
2022-09-18T16:11:46.109Z,12.01
2022-09-18T16:14:39.934Z,11.96
2022-09-18T16:17:36.427Z,11.93
2022-09-18T16:20:24.694Z,11.92
2022-09-18T16:22:58.636Z,12.00
2022-09-18T16:25:30.333Z,11.85
2022-09-18T16:28:03.683Z,11.84
2022-09-18T16:30:34.065Z,11.91
2022-09-18T16:33:07.564Z,11.96
2022-09-18T16:35:37.938Z,11.85
2022-09-18T16:38:10.318Z,11.84
2022-09-18T16:40:43.379Z,11.82
2022-09-18T16:43:13.864Z,11.80
2022-09-18T16:45:44.622Z,11.60
2022-09-18T16:48:15.540Z,11.19
2022-09-18T16:50:47.392Z,11.04
2022-09-18T16:53:17.783Z,10.78
2022-09-18T16:55:52.050Z,10.78
2022-09-18T16:58:24.841Z,10.70
2022-09-18T17:00:55.328Z,10.24
2022-09-18T17:03:28.308Z,9.98
2022-09-18T17:05:59.250Z,9.81
2022-09-18T17:08:30.897Z,9.78
2022-09-18T17:11:01.280Z,9.70
2022-09-18T17:13:31.591Z,9.65
2022-09-18T17:16:02.299Z,9.65
2022-09-18T17:18:32.730Z,9.72
2022-09-18T17:21:04.364Z,9.70
2022-09-18T17:23:36.565Z,9.73
2022-09-18T17:26:14.392Z,9.78
2022-09-18T17:28:44.683Z,9.76
2022-09-18T17:31:18.155Z,9.77
2022-09-18T17:33:48.835Z,9.78
2022-09-18T17:36:19.887Z,9.91
2022-09-18T17:38:50.514Z,9.76
2022-09-18T17:41:21.345Z,9.96
2022-09-18T17:43:53.483Z,9.88
2022-09-18T17:46:23.803Z,9.90
2022-09-18T17:48:59.084Z,9.87
2022-09-18T17:51:29.720Z,9.88
2022-09-18T17:54:03.181Z,9.81
2022-09-18T17:56:34.872Z,9.84
2022-09-18T17:59:08.143Z,9.74
2022-09-18T18:01:42.608Z,9.59
2022-09-18T18:04:14.039Z,9.54
2022-09-18T18:06:47.373Z,9.32
2022-09-18T18:09:17.659Z,9.28
2022-09-18T18:11:49.512Z,9.06
2022-09-18T18:14:20.210Z,9.03
2022-09-18T18:16:52.559Z,9.12
2022-09-18T18:19:22.874Z,9.04
2022-09-18T18:21:53.821Z,9.01
2022-09-18T18:24:24.216Z,8.98
2022-09-18T18:26:55.673Z,8.93
2022-09-18T18:29:26.409Z,8.86
2022-09-18T18:31:57.074Z,8.98
2022-09-18T18:34:27.661Z,8.95
2022-09-18T18:36:57.995Z,8.92
2022-09-18T18:39:28.398Z,9.08
2022-09-18T18:41:58.884Z,9.05
2022-09-18T18:44:29.242Z,9.16
2022-09-18T18:47:00.935Z,9.34
2022-09-18T18:49:31.514Z,9.36
2022-09-18T18:52:03.656Z,9.26
2022-09-18T18:54:34.036Z,9.18
2022-09-18T18:57:06.250Z,9.26
2022-09-18T18:59:36.851Z,9.26
2022-09-18T19:02:07.567Z,9.37
2022-09-18T19:04:39.758Z,9.36
2022-09-18T19:07:10.910Z,9.38
2022-09-18T19:09:41.292Z,9.44
2022-09-18T19:12:13.218Z,9.48
2022-09-18T19:14:43.608Z,9.44
2022-09-18T19:17:15.557Z,9.44
2022-09-18T19:19:46.338Z,9.41
2022-09-18T19:22:18.681Z,9.40
2022-09-18T19:24:49.079Z,9.46
2022-09-18T19:27:19.446Z,9.52
2022-09-18T19:29:50.272Z,9.48
2022-09-18T19:32:21.123Z,9.47
2022-09-18T19:34:51.408Z,9.44
2022-09-18T19:37:21.805Z,9.40
2022-09-18T19:39:52.111Z,9.40
2022-09-18T19:42:27.339Z,9.53
2022-09-18T19:45:01.551Z,9.46
2022-09-18T19:47:36.910Z,9.49
2022-09-18T19:50:09.739Z,9.50
2022-09-18T19:52:42.030Z,9.46
2022-09-18T19:55:16.951Z,9.43
2022-09-18T19:57:48.199Z,9.49
2022-09-18T20:00:18.844Z,9.44
2022-09-18T20:02:49.362Z,9.42
2022-09-18T20:05:20.092Z,9.45
2022-09-18T20:07:50.544Z,9.44
2022-09-18T20:10:22.838Z,9.37
2022-09-18T20:12:53.882Z,9.36
2022-09-18T20:15:24.112Z,9.42
2022-09-18T20:17:55.688Z,9.32
2022-09-18T20:20:26.831Z,9.38
2022-09-18T20:22:57.493Z,9.34
2022-09-18T20:25:28.025Z,9.38
2022-09-18T20:27:58.403Z,9.35
2022-09-18T20:30:28.764Z,9.36
2022-09-18T20:32:59.142Z,9.38
2022-09-18T20:35:29.604Z,9.39
2022-09-18T20:38:01.740Z,9.47
2022-09-18T20:40:32.549Z,9.36
2022-09-18T20:43:04.252Z,9.38
2022-09-18T20:45:34.795Z,9.36
2022-09-18T20:48:06.390Z,9.44
2022-09-18T20:50:39.084Z,9.42
2022-09-18T20:53:09.443Z,9.41
2022-09-18T20:55:39.813Z,9.36
2022-09-18T20:58:11.324Z,9.32
2022-09-18T21:00:41.788Z,9.34
2022-09-18T21:03:13.364Z,9.38
2022-09-18T21:05:44.395Z,9.36
2022-09-18T21:08:14.966Z,9.29
2022-09-18T21:10:48.240Z,9.30
2022-09-18T21:13:19.970Z,9.27
2022-09-18T21:15:50.307Z,9.36
2022-09-18T21:18:20.658Z,9.31
2022-09-18T21:20:52.580Z,9.30
2022-09-18T21:23:41.276Z,9.27
2022-09-18T21:26:17.449Z,9.35
2022-09-18T21:28:46.010Z,9.43
2022-09-18T21:31:16.464Z,9.38
2022-09-18T21:33:47.348Z,9.43
2022-09-18T21:36:17.811Z,9.36
2022-09-18T21:38:50.237Z,9.38
2022-09-18T21:41:22.198Z,9.42
2022-09-18T21:43:53.923Z,9.34
2022-09-18T21:46:24.367Z,9.38
2022-09-18T21:48:56.377Z,9.34
2022-09-18T21:51:26.699Z,9.44
2022-09-18T21:53:58.665Z,9.39
2022-09-18T21:56:29.063Z,9.54
2022-09-18T21:58:59.946Z,9.50
2022-09-18T22:01:31.806Z,9.44
2022-09-18T22:04:02.973Z,9.41
2022-09-18T22:06:38.248Z,9.46
2022-09-18T22:09:23.222Z,9.60
2022-09-18T22:11:54.722Z,9.48
2022-09-18T22:14:29.329Z,9.46
2022-09-18T22:17:05.248Z,9.46
2022-09-18T22:19:40.634Z,9.46
2022-09-18T22:22:07.886Z,9.59
2022-09-18T22:24:38.787Z,9.52
2022-09-18T22:27:10.184Z,9.47
2022-09-18T22:29:42.008Z,9.46
2022-09-18T22:32:12.376Z,9.56
2022-09-18T22:34:42.820Z,9.50
2022-09-18T22:37:13.286Z,9.54
2022-09-18T22:39:46.088Z,9.56
2022-09-18T22:42:15.866Z,9.59
2022-09-18T22:44:49.653Z,9.54
2022-09-18T22:47:20.083Z,9.62
2022-09-18T22:49:50.600Z,9.54
2022-09-18T22:52:20.901Z,9.58
2022-09-18T22:54:51.231Z,9.58
2022-09-18T22:57:21.599Z,9.58
2022-09-18T22:59:51.983Z,9.80
2022-09-18T23:02:23.202Z,9.68
2022-09-18T23:04:53.680Z,9.70
2022-09-18T23:07:25.568Z,9.72
2022-09-18T23:09:55.888Z,9.74
2022-09-18T23:12:26.168Z,9.76
2022-09-18T23:14:56.596Z,9.73
2022-09-18T23:17:26.976Z,9.70
2022-09-18T23:19:57.973Z,9.76
2022-09-18T23:22:28.282Z,9.75
2022-09-18T23:25:00.013Z,9.83
2022-09-18T23:27:30.386Z,9.77
2022-09-18T23:30:00.714Z,9.79
2022-09-18T23:32:31.200Z,9.77
2022-09-18T23:35:01.626Z,9.73
2022-09-18T23:37:31.975Z,9.82
2022-09-18T23:40:02.643Z,9.85
2022-09-18T23:42:33.088Z,9.77
2022-09-18T23:45:03.466Z,9.72
2022-09-18T23:47:35.516Z,9.96
2022-09-18T23:50:06.293Z,9.81
2022-09-18T23:52:36.607Z,9.74
2022-09-18T23:55:07.058Z,9.67
2022-09-18T23:57:37.558Z,9.74
